Detall de PIREP

Printer-friendly versionPDF version

[2014/06/12 08:16:00]
Flight IATA:CT3106
Pilot Number:042
Company ICAO:CAT
Aircraft Type:F100/A
PAX:48
Aircraft Registration:PFJ
Departing Airport: LIEA
Destination Airport: LEVC
Alternate Airport:LEMD
Online: VATSIM
Route:SUPUX UZ924 RIPAL UM603 CDP UN733 ARGOR
Flight Level:F310
No Slew and time accel
No pause
Crash detect
Detect pilot in Cockpit between each 30 and 45 minutes
08:16 Zero fuel Weight: 81826 Lbs, Fuel Weight: 17894 Lbs
08:16 VATSIM:LIEA 120750Z 35003KT 300V070 CAVOK 28/14 Q1020
08:16 VATSIM:LEVC 120730Z 30005KT CAVOK 27/10 Q1021 NOSIG
08:18 Parking Brakes off
08:22 Take-off
08:22 Take off Weight: 99343 Lbs
08:22 Wind: 351º @ 003 Knots Heading: 204º
08:22 POS N40º 37´ 39´´ E008º 17´ 17´´
08:22 Gear Up: 163 Knots
08:22 Flaps:2 at 163 Knots
08:23 Flaps:1 at 161 Knots
08:23 Flaps:0 at 160 Knots
08:37 Wind:005º@012 Knots Heading: 261º Ground Speed: 429 Knots Altitude 24127 ft
08:43 TOC
08:43 Fuel Weight: 14895 Lb
08:52 Wind:029º@028 Knots Heading: 257º Ground Speed: 478 Knots Altitude 31230 ft
09:04 TOD
09:04 Fuel Weight: 13027 Lb
09:07 Wind:089º@015 Knots Heading: 265º Ground Speed: 425 Knots Altitude 27211 ft
09:20 Flaps:1 at 223 Knots
09:20 Flaps:2 at 223 Knots
09:22 Wind:082º@007 Knots Heading: 251º Ground Speed: 211 Knots Altitude 3005 ft
09:25 Gear Down: 173 Knots
09:25 Flaps:3 at 173 Knots
09:28 TouchDown:Rate -295 ft/min Speed: 126 Knots
09:28 VATSIM:LEVC 120900Z VRB01KT CAVOK 31/10 Q1021 NOSIG
09:28 Land
09:28 Wind:102º@004 Knots
09:28 Heading: 297º
09:28 Flight Duration: 01:06
09:28 Landing Weight: 93289 Lbs
09:28 POS N39º 29´ 32´´ W000º 29´ 23´´
09:31 Parking brakes on
09:31 Block to Block Duration: 01:13
09:31 Final Fuel: 11300 Lbls
09:31 Spent Fuel: 6593 Lbls
09:31 Flight Length: 413 NM
09:31 TOD Land Length: 119 NM

Exportar CSV

Powered by Drupal - Modified by Danger4k